sensor_id;sensor_type;location;lat;lon;timestamp;P1;durP1;ratioP1;P2;durP2;ratioP2
66212;SDS011;53015;50.046;8.238;2022-07-29T00:00:43;3.67;;;1.20;;
66212;SDS011;53015;50.046;8.238;2022-07-29T00:03:11;4.07;;;1.65;;
66212;SDS011;53015;50.046;8.238;2022-07-29T00:05:38;8.45;;;1.80;;
66212;SDS011;53015;50.046;8.238;2022-07-29T00:08:04;4.53;;;1.20;;
66212;SDS011;53015;50.046;8.238;2022-07-29T00:10:29;3.35;;;1.35;;
66212;SDS011;53015;50.046;8.238;2022-07-29T00:12:55;7.60;;;1.45;;
66212;SDS011;53015;50.046;8.238;2022-07-29T00:15:20;3.25;;;1.20;;
66212;SDS011;53015;50.046;8.238;2022-07-29T00:17:45;10.30;;;1.20;;
66212;SDS011;53015;50.046;8.238;2022-07-29T00:20:11;6.68;;;1.40;;
66212;SDS011;53015;50.046;8.238;2022-07-29T00:22:37;5.22;;;1.98;;
66212;SDS011;53015;50.046;8.238;2022-07-29T00:25:03;5.93;;;2.10;;
66212;SDS011;53015;50.046;8.238;2022-07-29T00:27:29;3.58;;;1.65;;
66212;SDS011;53015;50.046;8.238;2022-07-29T00:29:54;10.93;;;2.30;;
66212;SDS011;53015;50.046;8.238;2022-07-29T00:32:20;4.32;;;1.80;;
66212;SDS011;53015;50.046;8.238;2022-07-29T00:34:45;4.28;;;1.67;;
66212;SDS011;53015;50.046;8.238;2022-07-29T00:37:29;4.18;;;1.73;;
66212;SDS011;53015;50.046;8.238;2022-07-29T00:39:54;6.05;;;1.85;;
66212;SDS011;53015;50.046;8.238;2022-07-29T00:42:20;4.72;;;1.63;;
66212;SDS011;53015;50.046;8.238;2022-07-29T00:44:45;5.93;;;1.63;;
66212;SDS011;53015;50.046;8.238;2022-07-29T00:47:11;3.17;;;1.48;;
66212;SDS011;53015;50.046;8.238;2022-07-29T00:49:38;4.35;;;1.75;;
66212;SDS011;53015;50.046;8.238;2022-07-29T00:52:06;4.50;;;1.48;;
66212;SDS011;53015;50.046;8.238;2022-07-29T00:54:33;5.18;;;1.65;;
66212;SDS011;53015;50.046;8.238;2022-07-29T00:56:59;3.53;;;1.60;;
66212;SDS011;53015;50.046;8.238;2022-07-29T00:59:25;3.95;;;1.80;;
66212;SDS011;53015;50.046;8.238;2022-07-29T01:01:52;3.47;;;1.85;;
66212;SDS011;53015;50.046;8.238;2022-07-29T01:04:18;3.60;;;1.95;;
66212;SDS011;53015;50.046;8.238;2022-07-29T01:06:45;4.63;;;2.13;;
66212;SDS011;53015;50.046;8.238;2022-07-29T01:09:12;4.43;;;1.90;;
66212;SDS011;53015;50.046;8.238;2022-07-29T01:11:38;5.38;;;1.63;;
66212;SDS011;53015;50.046;8.238;2022-07-29T01:14:04;5.50;;;1.80;;
66212;SDS011;53015;50.046;8.238;2022-07-29T01:16:32;2.80;;;1.70;;
66212;SDS011;53015;50.046;8.238;2022-07-29T01:22:52;4.60;;;1.90;;
66212;SDS011;53015;50.046;8.238;2022-07-29T01:37:27;4.45;;;1.58;;
66212;SDS011;53015;50.046;8.238;2022-07-29T01:39:58;5.25;;;1.90;;
66212;SDS011;53015;50.046;8.238;2022-07-29T01:42:29;4.25;;;1.77;;
66212;SDS011;53015;50.046;8.238;2022-07-29T01:45:00;3.95;;;1.70;;
66212;SDS011;53015;50.046;8.238;2022-07-29T01:47:55;5.40;;;1.73;;
66212;SDS011;53015;50.046;8.238;2022-07-29T01:50:28;3.45;;;1.70;;
66212;SDS011;53015;50.046;8.238;2022-07-29T01:55:31;3.97;;;1.95;;
66212;SDS011;53015;50.046;8.238;2022-07-29T01:57:59;5.22;;;2.65;;
66212;SDS011;53015;50.046;8.238;2022-07-29T02:00:27;4.63;;;2.13;;
66212;SDS011;53015;50.046;8.238;2022-07-29T02:02:56;5.70;;;2.42;;
66212;SDS011;53015;50.046;8.238;2022-07-29T02:05:24;3.58;;;2.20;;
66212;SDS011;53015;50.046;8.238;2022-07-29T02:07:52;5.38;;;2.30;;
66212;SDS011;53015;50.046;8.238;2022-07-29T02:10:20;4.18;;;2.00;;
66212;SDS011;53015;50.046;8.238;2022-07-29T02:12:48;4.68;;;2.08;;
66212;SDS011;53015;50.046;8.238;2022-07-29T02:15:15;5.85;;;2.60;;
66212;SDS011;53015;50.046;8.238;2022-07-29T02:17:43;4.93;;;2.17;;
66212;SDS011;53015;50.046;8.238;2022-07-29T02:20:19;8.43;;;2.47;;
66212;SDS011;53015;50.046;8.238;2022-07-29T02:22:44;4.90;;;2.25;;
66212;SDS011;53015;50.046;8.238;2022-07-29T02:25:11;5.05;;;2.10;;
66212;SDS011;53015;50.046;8.238;2022-07-29T02:27:38;7.78;;;2.95;;
66212;SDS011;53015;50.046;8.238;2022-07-29T02:30:05;7.15;;;2.30;;
66212;SDS011;53015;50.046;8.238;2022-07-29T02:32:34;5.05;;;2.40;;
66212;SDS011;53015;50.046;8.238;2022-07-29T02:35:02;8.32;;;2.75;;
66212;SDS011;53015;50.046;8.238;2022-07-29T02:37:28;5.53;;;2.80;;
66212;SDS011;53015;50.046;8.238;2022-07-29T02:39:55;4.28;;;2.08;;
66212;SDS011;53015;50.046;8.238;2022-07-29T02:42:23;7.95;;;2.42;;
66212;SDS011;53015;50.046;8.238;2022-07-29T02:44:51;9.40;;;2.03;;
66212;SDS011;53015;50.046;8.238;2022-07-29T02:47:20;7.20;;;2.25;;
66212;SDS011;53015;50.046;8.238;2022-07-29T02:50:06;6.18;;;2.63;;
66212;SDS011;53015;50.046;8.238;2022-07-29T02:55:31;5.40;;;2.30;;
66212;SDS011;53015;50.046;8.238;2022-07-29T02:58:02;10.70;;;2.10;;
66212;SDS011;53015;50.046;8.238;2022-07-29T03:00:34;5.77;;;2.20;;
66212;SDS011;53015;50.046;8.238;2022-07-29T03:03:03;3.70;;;2.00;;
66212;SDS011;53015;50.046;8.238;2022-07-29T03:05:31;5.95;;;2.22;;
66212;SDS011;53015;50.046;8.238;2022-07-29T03:08:00;5.57;;;2.50;;
66212;SDS011;53015;50.046;8.238;2022-07-29T03:10:27;6.20;;;2.78;;
66212;SDS011;53015;50.046;8.238;2022-07-29T03:12:54;3.90;;;2.08;;
66212;SDS011;53015;50.046;8.238;2022-07-29T03:15:20;4.53;;;2.40;;
66212;SDS011;53015;50.046;8.238;2022-07-29T03:17:46;4.65;;;2.50;;
66212;SDS011;53015;50.046;8.238;2022-07-29T03:20:12;4.93;;;2.30;;
66212;SDS011;53015;50.046;8.238;2022-07-29T03:22:42;7.38;;;3.13;;
66212;SDS011;53015;50.046;8.238;2022-07-29T03:25:11;5.15;;;2.50;;
66212;SDS011;53015;50.046;8.238;2022-07-29T03:27:38;6.05;;;3.00;;
66212;SDS011;53015;50.046;8.238;2022-07-29T03:30:04;6.07;;;2.53;;
66212;SDS011;53015;50.046;8.238;2022-07-29T03:32:30;4.93;;;2.50;;
66212;SDS011;53015;50.046;8.238;2022-07-29T03:34:56;6.38;;;2.90;;
66212;SDS011;53015;50.046;8.238;2022-07-29T03:37:21;4.18;;;2.50;;
66212;SDS011;53015;50.046;8.238;2022-07-29T03:39:47;6.43;;;3.28;;
66212;SDS011;53015;50.046;8.238;2022-07-29T03:42:15;4.63;;;2.78;;
66212;SDS011;53015;50.046;8.238;2022-07-29T03:44:44;4.15;;;2.60;;
66212;SDS011;53015;50.046;8.238;2022-07-29T03:47:12;9.32;;;3.00;;
66212;SDS011;53015;50.046;8.238;2022-07-29T03:49:39;4.95;;;2.65;;
66212;SDS011;53015;50.046;8.238;2022-07-29T03:52:06;5.05;;;2.70;;
66212;SDS011;53015;50.046;8.238;2022-07-29T03:54:32;6.85;;;3.25;;
66212;SDS011;53015;50.046;8.238;2022-07-29T03:56:59;5.35;;;2.70;;
66212;SDS011;53015;50.046;8.238;2022-07-29T03:59:26;8.50;;;3.25;;
66212;SDS011;53015;50.046;8.238;2022-07-29T04:01:52;7.53;;;3.13;;
66212;SDS011;53015;50.046;8.238;2022-07-29T04:04:19;7.65;;;3.00;;
66212;SDS011;53015;50.046;8.238;2022-07-29T04:06:45;8.23;;;3.50;;
66212;SDS011;53015;50.046;8.238;2022-07-29T04:09:11;5.32;;;3.15;;
66212;SDS011;53015;50.046;8.238;2022-07-29T04:11:40;6.18;;;3.42;;
66212;SDS011;53015;50.046;8.238;2022-07-29T04:14:07;5.38;;;2.85;;
66212;SDS011;53015;50.046;8.238;2022-07-29T04:16:32;4.25;;;2.80;;
66212;SDS011;53015;50.046;8.238;2022-07-29T04:18:58;7.18;;;3.53;;
66212;SDS011;53015;50.046;8.238;2022-07-29T04:21:23;4.95;;;3.17;;
66212;SDS011;53015;50.046;8.238;2022-07-29T04:23:48;4.95;;;3.17;;
66212;SDS011;53015;50.046;8.238;2022-07-29T04:26:15;5.60;;;3.60;;
66212;SDS011;53015;50.046;8.238;2022-07-29T04:28:41;7.38;;;3.72;;
66212;SDS011;53015;50.046;8.238;2022-07-29T04:31:07;5.40;;;3.58;;
66212;SDS011;53015;50.046;8.238;2022-07-29T04:33:33;5.05;;;3.50;;
66212;SDS011;53015;50.046;8.238;2022-07-29T04:35:59;6.28;;;3.10;;
66212;SDS011;53015;50.046;8.238;2022-07-29T04:38:24;6.97;;;3.55;;
66212;SDS011;53015;50.046;8.238;2022-07-29T04:40:49;6.30;;;3.65;;
66212;SDS011;53015;50.046;8.238;2022-07-29T04:43:15;6.68;;;3.25;;
66212;SDS011;53015;50.046;8.238;2022-07-29T04:45:40;7.35;;;3.47;;
66212;SDS011;53015;50.046;8.238;2022-07-29T04:48:06;4.68;;;3.58;;
66212;SDS011;53015;50.046;8.238;2022-07-29T04:50:31;9.10;;;3.72;;
66212;SDS011;53015;50.046;8.238;2022-07-29T04:52:57;6.95;;;3.25;;
66212;SDS011;53015;50.046;8.238;2022-07-29T04:55:22;4.65;;;3.47;;
66212;SDS011;53015;50.046;8.238;2022-07-29T04:57:48;4.03;;;3.53;;
66212;SDS011;53015;50.046;8.238;2022-07-29T05:00:13;5.35;;;3.05;;
66212;SDS011;53015;50.046;8.238;2022-07-29T05:02:39;5.32;;;3.42;;
66212;SDS011;53015;50.046;8.238;2022-07-29T05:05:04;6.25;;;3.60;;
66212;SDS011;53015;50.046;8.238;2022-07-29T05:07:30;6.53;;;3.58;;
66212;SDS011;53015;50.046;8.238;2022-07-29T05:09:56;6.07;;;3.20;;
66212;SDS011;53015;50.046;8.238;2022-07-29T05:12:22;4.70;;;3.10;;
66212;SDS011;53015;50.046;8.238;2022-07-29T05:14:48;7.45;;;4.13;;
66212;SDS011;53015;50.046;8.238;2022-07-29T05:17:13;5.25;;;3.20;;
66212;SDS011;53015;50.046;8.238;2022-07-29T05:19:39;7.32;;;3.30;;
66212;SDS011;53015;50.046;8.238;2022-07-29T05:22:04;5.15;;;3.20;;
66212;SDS011;53015;50.046;8.238;2022-07-29T05:24:30;5.88;;;3.60;;
66212;SDS011;53015;50.046;8.238;2022-07-29T05:26:55;5.10;;;3.10;;
66212;SDS011;53015;50.046;8.238;2022-07-29T05:29:21;10.25;;;3.38;;
66212;SDS011;53015;50.046;8.238;2022-07-29T05:31:46;5.28;;;3.40;;
66212;SDS011;53015;50.046;8.238;2022-07-29T05:34:12;5.15;;;3.17;;
66212;SDS011;53015;50.046;8.238;2022-07-29T05:36:37;4.53;;;3.00;;
66212;SDS011;53015;50.046;8.238;2022-07-29T05:39:02;5.72;;;3.38;;
66212;SDS011;53015;50.046;8.238;2022-07-29T05:41:28;6.22;;;3.40;;
66212;SDS011;53015;50.046;8.238;2022-07-29T05:43:56;9.65;;;3.00;;
66212;SDS011;53015;50.046;8.238;2022-07-29T05:46:23;4.47;;;2.70;;
66212;SDS011;53015;50.046;8.238;2022-07-29T05:48:48;7.10;;;2.88;;
66212;SDS011;53015;50.046;8.238;2022-07-29T05:51:14;3.17;;;2.60;;
66212;SDS011;53015;50.046;8.238;2022-07-29T05:53:39;5.95;;;2.88;;
66212;SDS011;53015;50.046;8.238;2022-07-29T05:56:05;7.47;;;2.83;;
66212;SDS011;53015;50.046;8.238;2022-07-29T05:58:30;8.00;;;3.05;;
66212;SDS011;53015;50.046;8.238;2022-07-29T06:00:56;6.05;;;3.08;;
66212;SDS011;53015;50.046;8.238;2022-07-29T06:03:24;4.40;;;2.78;;
66212;SDS011;53015;50.046;8.238;2022-07-29T06:05:50;3.53;;;2.70;;
66212;SDS011;53015;50.046;8.238;2022-07-29T06:08:15;3.65;;;2.30;;
66212;SDS011;53015;50.046;8.238;2022-07-29T06:10:41;7.80;;;2.70;;
66212;SDS011;53015;50.046;8.238;2022-07-29T06:13:06;3.72;;;2.65;;
66212;SDS011;53015;50.046;8.238;2022-07-29T06:15:31;6.05;;;2.60;;
66212;SDS011;53015;50.046;8.238;2022-07-29T06:17:57;5.13;;;2.63;;
66212;SDS011;53015;50.046;8.238;2022-07-29T06:20:22;4.30;;;2.25;;
66212;SDS011;53015;50.046;8.238;2022-07-29T06:22:48;3.65;;;2.22;;
66212;SDS011;53015;50.046;8.238;2022-07-29T06:25:13;8.48;;;2.40;;
66212;SDS011;53015;50.046;8.238;2022-07-29T06:27:39;4.68;;;2.13;;
66212;SDS011;53015;50.046;8.238;2022-07-29T06:30:04;5.07;;;2.30;;
66212;SDS011;53015;50.046;8.238;2022-07-29T06:32:32;3.78;;;2.53;;
66212;SDS011;53015;50.046;8.238;2022-07-29T06:34:58;6.50;;;2.60;;
66212;SDS011;53015;50.046;8.238;2022-07-29T06:37:23;6.65;;;2.40;;
66212;SDS011;53015;50.046;8.238;2022-07-29T06:39:49;3.42;;;2.05;;
66212;SDS011;53015;50.046;8.238;2022-07-29T06:42:34;4.65;;;2.25;;
66212;SDS011;53015;50.046;8.238;2022-07-29T06:44:59;6.45;;;2.53;;
66212;SDS011;53015;50.046;8.238;2022-07-29T06:47:25;4.90;;;2.03;;
66212;SDS011;53015;50.046;8.238;2022-07-29T06:49:50;4.75;;;2.25;;
66212;SDS011;53015;50.046;8.238;2022-07-29T06:52:15;7.30;;;2.22;;
66212;SDS011;53015;50.046;8.238;2022-07-29T06:54:41;3.83;;;2.25;;
66212;SDS011;53015;50.046;8.238;2022-07-29T06:57:13;4.68;;;2.63;;
66212;SDS011;53015;50.046;8.238;2022-07-29T06:59:38;10.57;;;2.45;;
66212;SDS011;53015;50.046;8.238;2022-07-29T07:02:04;4.72;;;2.08;;
66212;SDS011;53015;50.046;8.238;2022-07-29T07:04:29;5.40;;;2.15;;
66212;SDS011;53015;50.046;8.238;2022-07-29T07:06:55;4.25;;;2.05;;
66212;SDS011;53015;50.046;8.238;2022-07-29T07:09:20;6.63;;;2.65;;
66212;SDS011;53015;50.046;8.238;2022-07-29T07:11:46;3.88;;;2.35;;
66212;SDS011;53015;50.046;8.238;2022-07-29T07:14:11;5.57;;;2.17;;
66212;SDS011;53015;50.046;8.238;2022-07-29T07:16:37;5.05;;;2.15;;
66212;SDS011;53015;50.046;8.238;2022-07-29T07:19:02;6.13;;;2.00;;
66212;SDS011;53015;50.046;8.238;2022-07-29T07:21:28;13.70;;;2.42;;
66212;SDS011;53015;50.046;8.238;2022-07-29T07:23:53;5.68;;;2.13;;
66212;SDS011;53015;50.046;8.238;2022-07-29T07:26:22;8.25;;;2.00;;
66212;SDS011;53015;50.046;8.238;2022-07-29T07:28:51;4.53;;;1.92;;
66212;SDS011;53015;50.046;8.238;2022-07-29T07:31:16;7.82;;;2.28;;
66212;SDS011;53015;50.046;8.238;2022-07-29T07:33:42;5.90;;;2.00;;
66212;SDS011;53015;50.046;8.238;2022-07-29T07:36:07;6.63;;;1.80;;
66212;SDS011;53015;50.046;8.238;2022-07-29T07:38:33;7.03;;;2.30;;
66212;SDS011;53015;50.046;8.238;2022-07-29T07:40:58;4.00;;;2.03;;
66212;SDS011;53015;50.046;8.238;2022-07-29T07:43:24;7.43;;;2.08;;
66212;SDS011;53015;50.046;8.238;2022-07-29T07:45:49;6.43;;;1.98;;
66212;SDS011;53015;50.046;8.238;2022-07-29T07:48:14;7.63;;;2.03;;
66212;SDS011;53015;50.046;8.238;2022-07-29T07:50:40;7.30;;;1.80;;
66212;SDS011;53015;50.046;8.238;2022-07-29T07:53:05;4.88;;;1.95;;
66212;SDS011;53015;50.046;8.238;2022-07-29T07:55:31;3.50;;;1.65;;
66212;SDS011;53015;50.046;8.238;2022-07-29T07:57:56;5.38;;;2.05;;
66212;SDS011;53015;50.046;8.238;2022-07-29T08:00:21;6.18;;;1.88;;
66212;SDS011;53015;50.046;8.238;2022-07-29T08:02:47;3.58;;;2.17;;
66212;SDS011;53015;50.046;8.238;2022-07-29T08:05:13;3.60;;;2.10;;
66212;SDS011;53015;50.046;8.238;2022-07-29T08:07:42;7.85;;;2.10;;
66212;SDS011;53015;50.046;8.238;2022-07-29T08:10:09;7.15;;;2.15;;
66212;SDS011;53015;50.046;8.238;2022-07-29T08:12:35;4.50;;;2.20;;
66212;SDS011;53015;50.046;8.238;2022-07-29T08:15:00;7.25;;;2.05;;
66212;SDS011;53015;50.046;8.238;2022-07-29T08:17:26;4.95;;;2.00;;
66212;SDS011;53015;50.046;8.238;2022-07-29T08:19:51;4.68;;;2.15;;
66212;SDS011;53015;50.046;8.238;2022-07-29T08:22:17;6.45;;;2.55;;
66212;SDS011;53015;50.046;8.238;2022-07-29T08:24:42;5.75;;;2.65;;
66212;SDS011;53015;50.046;8.238;2022-07-29T08:27:08;6.13;;;1.90;;
66212;SDS011;53015;50.046;8.238;2022-07-29T08:29:35;13.55;;;2.28;;
66212;SDS011;53015;50.046;8.238;2022-07-29T08:32:00;7.53;;;2.58;;
66212;SDS011;53015;50.046;8.238;2022-07-29T08:34:26;3.28;;;2.00;;
66212;SDS011;53015;50.046;8.238;2022-07-29T08:36:52;5.78;;;2.10;;
66212;SDS011;53015;50.046;8.238;2022-07-29T08:39:17;9.77;;;1.90;;
66212;SDS011;53015;50.046;8.238;2022-07-29T08:41:42;5.82;;;2.30;;
66212;SDS011;53015;50.046;8.238;2022-07-29T08:44:08;7.65;;;2.55;;
66212;SDS011;53015;50.046;8.238;2022-07-29T08:46:34;5.07;;;1.83;;
66212;SDS011;53015;50.046;8.238;2022-07-29T08:49:04;4.43;;;1.83;;
66212;SDS011;53015;50.046;8.238;2022-07-29T08:51:30;7.28;;;1.52;;
66212;SDS011;53015;50.046;8.238;2022-07-29T08:54:00;7.82;;;2.03;;
66212;SDS011;53015;50.046;8.238;2022-07-29T08:56:26;8.35;;;2.03;;
66212;SDS011;53015;50.046;8.238;2022-07-29T08:58:52;12.60;;;4.55;;
66212;SDS011;53015;50.046;8.238;2022-07-29T09:01:22;5.65;;;2.00;;
66212;SDS011;53015;50.046;8.238;2022-07-29T09:03:48;12.07;;;1.92;;
66212;SDS011;53015;50.046;8.238;2022-07-29T09:06:15;8.82;;;2.30;;
66212;SDS011;53015;50.046;8.238;2022-07-29T09:08:42;7.75;;;1.77;;
66212;SDS011;53015;50.046;8.238;2022-07-29T09:11:09;8.05;;;2.10;;
66212;SDS011;53015;50.046;8.238;2022-07-29T09:13:36;3.58;;;1.88;;
66212;SDS011;53015;50.046;8.238;2022-07-29T09:16:01;8.27;;;2.17;;
66212;SDS011;53015;50.046;8.238;2022-07-29T09:18:37;5.50;;;2.25;;
66212;SDS011;53015;50.046;8.238;2022-07-29T09:21:08;7.35;;;2.00;;
66212;SDS011;53015;50.046;8.238;2022-07-29T09:24:10;6.60;;;2.17;;
66212;SDS011;53015;50.046;8.238;2022-07-29T09:26:38;7.05;;;2.13;;
66212;SDS011;53015;50.046;8.238;2022-07-29T09:29:13;9.20;;;2.13;;
66212;SDS011;53015;50.046;8.238;2022-07-29T09:31:41;7.60;;;2.03;;
66212;SDS011;53015;50.046;8.238;2022-07-29T09:34:08;4.50;;;1.90;;
66212;SDS011;53015;50.046;8.238;2022-07-29T09:36:46;4.95;;;1.80;;
66212;SDS011;53015;50.046;8.238;2022-07-29T09:39:13;7.35;;;1.90;;
66212;SDS011;53015;50.046;8.238;2022-07-29T09:41:47;5.03;;;2.10;;
66212;SDS011;53015;50.046;8.238;2022-07-29T09:44:14;9.68;;;2.30;;
66212;SDS011;53015;50.046;8.238;2022-07-29T09:46:40;3.28;;;1.90;;
66212;SDS011;53015;50.046;8.238;2022-07-29T09:49:33;11.27;;;2.33;;
66212;SDS011;53015;50.046;8.238;2022-07-29T09:52:09;3.15;;;1.73;;
66212;SDS011;53015;50.046;8.238;2022-07-29T09:54:36;3.85;;;2.20;;
66212;SDS011;53015;50.046;8.238;2022-07-29T09:57:06;8.80;;;2.17;;
66212;SDS011;53015;50.046;8.238;2022-07-29T09:59:33;6.78;;;2.17;;
66212;SDS011;53015;50.046;8.238;2022-07-29T10:01:59;3.10;;;2.00;;
66212;SDS011;53015;50.046;8.238;2022-07-29T10:04:36;6.68;;;2.13;;
66212;SDS011;53015;50.046;8.238;2022-07-29T10:07:03;11.50;;;2.08;;
66212;SDS011;53015;50.046;8.238;2022-07-29T10:09:30;7.38;;;3.03;;
66212;SDS011;53015;50.046;8.238;2022-07-29T10:12:12;3.58;;;1.75;;
66212;SDS011;53015;50.046;8.238;2022-07-29T10:14:39;8.50;;;2.33;;
66212;SDS011;53015;50.046;8.238;2022-07-29T10:17:07;5.63;;;1.90;;
66212;SDS011;53015;50.046;8.238;2022-07-29T10:19:34;5.80;;;1.83;;
66212;SDS011;53015;50.046;8.238;2022-07-29T10:22:01;2.80;;;1.58;;
66212;SDS011;53015;50.046;8.238;2022-07-29T10:24:29;5.07;;;2.13;;
66212;SDS011;53015;50.046;8.238;2022-07-29T10:26:56;14.10;;;2.20;;
66212;SDS011;53015;50.046;8.238;2022-07-29T10:29:25;5.03;;;1.88;;
66212;SDS011;53015;50.046;8.238;2022-07-29T10:32:39;4.95;;;2.17;;
66212;SDS011;53015;50.046;8.238;2022-07-29T10:40:57;4.25;;;2.10;;
66212;SDS011;53015;50.046;8.238;2022-07-29T10:43:50;5.45;;;1.88;;
66212;SDS011;53015;50.046;8.238;2022-07-29T10:46:18;6.68;;;2.20;;
66212;SDS011;53015;50.046;8.238;2022-07-29T10:57:31;4.70;;;2.28;;
66212;SDS011;53015;50.046;8.238;2022-07-29T11:05:11;6.45;;;1.90;;
66212;SDS011;53015;50.046;8.238;2022-07-29T11:10:39;7.10;;;2.20;;
66212;SDS011;53015;50.046;8.238;2022-07-29T11:13:04;8.93;;;2.05;;
66212;SDS011;53015;50.046;8.238;2022-07-29T11:15:32;3.42;;;2.20;;
66212;SDS011;53015;50.046;8.238;2022-07-29T11:18:19;6.00;;;2.10;;
66212;SDS011;53015;50.046;8.238;2022-07-29T11:20:46;7.60;;;2.15;;
66212;SDS011;53015;50.046;8.238;2022-07-29T11:31:16;9.02;;;2.13;;
66212;SDS011;53015;50.046;8.238;2022-07-29T11:33:56;8.48;;;2.25;;
66212;SDS011;53015;50.046;8.238;2022-07-29T11:36:22;6.05;;;2.00;;
66212;SDS011;53015;50.046;8.238;2022-07-29T11:38:47;9.85;;;2.30;;
66212;SDS011;53015;50.046;8.238;2022-07-29T11:41:26;5.50;;;2.08;;
66212;SDS011;53015;50.046;8.238;2022-07-29T11:43:58;8.07;;;2.38;;
66212;SDS011;53015;50.046;8.238;2022-07-29T11:49:18;5.70;;;2.30;;
66212;SDS011;53015;50.046;8.238;2022-07-29T11:51:54;4.07;;;1.90;;
66212;SDS011;53015;50.046;8.238;2022-07-29T11:54:25;5.43;;;1.83;;
66212;SDS011;53015;50.046;8.238;2022-07-29T11:56:53;3.05;;;1.90;;
66212;SDS011;53015;50.046;8.238;2022-07-29T11:59:19;3.88;;;1.95;;
66212;SDS011;53015;50.046;8.238;2022-07-29T12:01:55;6.28;;;2.03;;
66212;SDS011;53015;50.046;8.238;2022-07-29T12:04:23;5.30;;;1.80;;
66212;SDS011;53015;50.046;8.238;2022-07-29T12:06:52;2.78;;;2.10;;
66212;SDS011;53015;50.046;8.238;2022-07-29T12:09:18;2.85;;;2.00;;
66212;SDS011;53015;50.046;8.238;2022-07-29T12:11:45;5.15;;;1.80;;
66212;SDS011;53015;50.046;8.238;2022-07-29T12:14:30;8.85;;;2.38;;
66212;SDS011;53015;50.046;8.238;2022-07-29T12:16:57;3.35;;;1.70;;
66212;SDS011;53015;50.046;8.238;2022-07-29T12:19:24;2.45;;;1.90;;
66212;SDS011;53015;50.046;8.238;2022-07-29T12:21:54;3.10;;;1.83;;
66212;SDS011;53015;50.046;8.238;2022-07-29T12:24:20;6.85;;;2.10;;
66212;SDS011;53015;50.046;8.238;2022-07-29T12:26:56;3.13;;;2.03;;
66212;SDS011;53015;50.046;8.238;2022-07-29T12:29:22;4.07;;;2.17;;
66212;SDS011;53015;50.046;8.238;2022-07-29T12:31:55;6.72;;;1.90;;
66212;SDS011;53015;50.046;8.238;2022-07-29T12:34:22;3.45;;;2.00;;
66212;SDS011;53015;50.046;8.238;2022-07-29T12:36:49;6.20;;;1.95;;
66212;SDS011;53015;50.046;8.238;2022-07-29T12:39:18;3.25;;;2.17;;
66212;SDS011;53015;50.046;8.238;2022-07-29T12:41:44;4.20;;;2.10;;
66212;SDS011;53015;50.046;8.238;2022-07-29T12:44:10;7.75;;;1.80;;
66212;SDS011;53015;50.046;8.238;2022-07-29T12:46:36;5.43;;;2.20;;
66212;SDS011;53015;50.046;8.238;2022-07-29T12:49:02;6.60;;;2.50;;
66212;SDS011;53015;50.046;8.238;2022-07-29T12:51:28;2.38;;;2.00;;
66212;SDS011;53015;50.046;8.238;2022-07-29T12:54:02;3.28;;;1.80;;
66212;SDS011;53015;50.046;8.238;2022-07-29T12:56:27;4.97;;;2.30;;
66212;SDS011;53015;50.046;8.238;2022-07-29T12:58:53;3.90;;;2.20;;
66212;SDS011;53015;50.046;8.238;2022-07-29T13:01:19;3.30;;;2.22;;
66212;SDS011;53015;50.046;8.238;2022-07-29T13:03:55;3.35;;;2.30;;
66212;SDS011;53015;50.046;8.238;2022-07-29T13:09:05;5.50;;;2.08;;
66212;SDS011;53015;50.046;8.238;2022-07-29T13:11:32;4.45;;;2.20;;
66212;SDS011;53015;50.046;8.238;2022-07-29T13:13:59;3.05;;;2.28;;
66212;SDS011;53015;50.046;8.238;2022-07-29T13:16:25;3.13;;;2.17;;
66212;SDS011;53015;50.046;8.238;2022-07-29T13:19:02;2.70;;;1.80;;
66212;SDS011;53015;50.046;8.238;2022-07-29T13:21:29;3.88;;;2.10;;
66212;SDS011;53015;50.046;8.238;2022-07-29T13:23:55;3.40;;;2.08;;
66212;SDS011;53015;50.046;8.238;2022-07-29T13:26:20;2.92;;;1.88;;
66212;SDS011;53015;50.046;8.238;2022-07-29T13:28:46;4.50;;;1.98;;
66212;SDS011;53015;50.046;8.238;2022-07-29T13:31:11;4.45;;;1.77;;
66212;SDS011;53015;50.046;8.238;2022-07-29T13:33:36;3.85;;;1.60;;
66212;SDS011;53015;50.046;8.238;2022-07-29T13:36:02;2.35;;;1.70;;
66212;SDS011;53015;50.046;8.238;2022-07-29T13:38:27;3.92;;;1.80;;
66212;SDS011;53015;50.046;8.238;2022-07-29T13:40:52;3.92;;;1.80;;
66212;SDS011;53015;50.046;8.238;2022-07-29T13:43:18;3.50;;;1.70;;
66212;SDS011;53015;50.046;8.238;2022-07-29T13:45:43;2.45;;;1.80;;
66212;SDS011;53015;50.046;8.238;2022-07-29T13:48:09;5.75;;;1.92;;
66212;SDS011;53015;50.046;8.238;2022-07-29T13:50:34;2.85;;;1.77;;
66212;SDS011;53015;50.046;8.238;2022-07-29T13:53:00;2.88;;;2.00;;
66212;SDS011;53015;50.046;8.238;2022-07-29T13:55:25;3.42;;;2.30;;
66212;SDS011;53015;50.046;8.238;2022-07-29T13:57:50;5.75;;;2.35;;
66212;SDS011;53015;50.046;8.238;2022-07-29T14:00:16;5.15;;;2.15;;
66212;SDS011;53015;50.046;8.238;2022-07-29T14:02:42;3.65;;;2.28;;
66212;SDS011;53015;50.046;8.238;2022-07-29T14:05:07;3.00;;;2.10;;
66212;SDS011;53015;50.046;8.238;2022-07-29T14:07:35;5.25;;;2.40;;
66212;SDS011;53015;50.046;8.238;2022-07-29T14:10:00;6.28;;;2.10;;
66212;SDS011;53015;50.046;8.238;2022-07-29T14:12:26;4.03;;;2.22;;
66212;SDS011;53015;50.046;8.238;2022-07-29T14:14:51;4.00;;;2.05;;
66212;SDS011;53015;50.046;8.238;2022-07-29T14:17:17;3.83;;;2.20;;
66212;SDS011;53015;50.046;8.238;2022-07-29T14:19:42;4.68;;;2.22;;
66212;SDS011;53015;50.046;8.238;2022-07-29T14:22:08;3.10;;;2.10;;
66212;SDS011;53015;50.046;8.238;2022-07-29T14:24:37;2.55;;;2.05;;
66212;SDS011;53015;50.046;8.238;2022-07-29T14:27:03;4.32;;;2.40;;
66212;SDS011;53015;50.046;8.238;2022-07-29T14:29:30;4.28;;;2.10;;
66212;SDS011;53015;50.046;8.238;2022-07-29T14:31:56;5.93;;;2.10;;
66212;SDS011;53015;50.046;8.238;2022-07-29T14:34:21;4.38;;;2.30;;
66212;SDS011;53015;50.046;8.238;2022-07-29T14:36:47;5.15;;;2.10;;
66212;SDS011;53015;50.046;8.238;2022-07-29T14:39:12;2.67;;;2.00;;
66212;SDS011;53015;50.046;8.238;2022-07-29T14:41:37;3.03;;;1.95;;
66212;SDS011;53015;50.046;8.238;2022-07-29T14:44:03;3.33;;;2.25;;
66212;SDS011;53015;50.046;8.238;2022-07-29T14:46:28;2.92;;;2.00;;
66212;SDS011;53015;50.046;8.238;2022-07-29T14:48:54;4.63;;;2.10;;
66212;SDS011;53015;50.046;8.238;2022-07-29T14:51:19;4.15;;;2.35;;
66212;SDS011;53015;50.046;8.238;2022-07-29T14:53:45;2.50;;;1.88;;
66212;SDS011;53015;50.046;8.238;2022-07-29T14:56:11;6.40;;;2.10;;
66212;SDS011;53015;50.046;8.238;2022-07-29T14:58:36;4.00;;;2.13;;
66212;SDS011;53015;50.046;8.238;2022-07-29T15:01:02;3.88;;;1.90;;
66212;SDS011;53015;50.046;8.238;2022-07-29T15:03:27;6.13;;;2.17;;
66212;SDS011;53015;50.046;8.238;2022-07-29T15:05:53;2.65;;;1.83;;
66212;SDS011;53015;50.046;8.238;2022-07-29T15:08:19;10.73;;;2.70;;
66212;SDS011;53015;50.046;8.238;2022-07-29T15:10:45;6.43;;;3.13;;
66212;SDS011;53015;50.046;8.238;2022-07-29T15:13:10;12.68;;;4.40;;
66212;SDS011;53015;50.046;8.238;2022-07-29T15:15:36;14.27;;;4.72;;
66212;SDS011;53015;50.046;8.238;2022-07-29T15:18:01;17.85;;;4.88;;
66212;SDS011;53015;50.046;8.238;2022-07-29T15:20:26;14.50;;;4.28;;
66212;SDS011;53015;50.046;8.238;2022-07-29T15:22:52;15.18;;;5.05;;
66212;SDS011;53015;50.046;8.238;2022-07-29T15:25:20;13.55;;;3.67;;
66212;SDS011;53015;50.046;8.238;2022-07-29T15:27:48;9.07;;;3.17;;
66212;SDS011;53015;50.046;8.238;2022-07-29T15:30:14;14.25;;;5.30;;
66212;SDS011;53015;50.046;8.238;2022-07-29T15:32:41;12.98;;;4.38;;
66212;SDS011;53015;50.046;8.238;2022-07-29T15:35:07;12.80;;;5.25;;
66212;SDS011;53015;50.046;8.238;2022-07-29T15:37:34;10.50;;;3.40;;
66212;SDS011;53015;50.046;8.238;2022-07-29T15:40:00;6.53;;;2.95;;
66212;SDS011;53015;50.046;8.238;2022-07-29T15:42:26;4.40;;;2.95;;
66212;SDS011;53015;50.046;8.238;2022-07-29T15:44:51;9.32;;;3.65;;
66212;SDS011;53015;50.046;8.238;2022-07-29T15:47:17;5.95;;;3.78;;